Salinas Municipal Airport Salinas US
ICAO: KSNS
IATA: SNS
Category: Medium
Scheduled Services: No

Elevation: 85 ft
TransAlt. 18000 ft.

Airport Communications:
NORCAL APP/DEP:127.15
ATIS:124.85
CTAF:119.4
GND:121.7
OAKLAND RDO:122.6
TWR:119.4
UNICOM:122.95

KSNS Zoom In..

Runways:

(A) RW 08 length 6004 ft width 150 ft
---- / hdg 81

(B) RW 13 length 4825 ft width 150 ft
---- / hdg 132

(C) RW 26 length 6004 ft width 150 ft
---- / hdg 261

(D) RW 31 length 4825 ft width 150 ft
ILS 108.50 / hdg 312

Location; KSNS
Day. 19 / Time. 01.53 Zulu
* Altimeter: 30.38
* Temperature: 14° c. 57.2°f.
* Wind from: 350° Speed 11 kn.
Dewpoint: 08° c.
Visibility: 10 Statute Miles.
Clouds: Clear (automated report).

KSNS 190153Z 35011KT 10SM CLR 14/08 A3038 RMK AO2 PRESRR SLP296 T01440083

Going to: --> -->


Wind From 350°
Speed 11 kn.

 
 
jpsmedia worldairports.se 2021   terms of use